sensor_id;sensor_type;location;lat;lon;timestamp;pressure;altitude;pressure_sealevel;temperature;humidity
56681;BME280;42558;52.388;13.390;2022-12-17T00:00:20;101656.10;;;-2.85;100.00
56681;BME280;42558;52.388;13.390;2022-12-17T00:03:10;101659.05;;;-2.87;100.00
56681;BME280;42558;52.388;13.390;2022-12-17T00:05:58;101665.45;;;-2.89;100.00
56681;BME280;42558;52.388;13.390;2022-12-17T00:08:47;101667.73;;;-2.78;100.00
56681;BME280;42558;52.388;13.390;2022-12-17T00:11:35;101672.44;;;-2.71;100.00
56681;BME280;42558;52.388;13.390;2022-12-17T00:14:24;101670.67;;;-2.62;100.00
56681;BME280;42558;52.388;13.390;2022-12-17T00:17:13;101673.76;;;-2.63;100.00
56681;BME280;42558;52.388;13.390;2022-12-17T00:20:02;101678.15;;;-2.57;100.00
56681;BME280;42558;52.388;13.390;2022-12-17T00:23:02;101678.97;;;-2.60;100.00
56681;BME280;42558;52.388;13.390;2022-12-17T00:25:54;101678.29;;;-2.77;100.00
56681;BME280;42558;52.388;13.390;2022-12-17T00:28:42;101684.30;;;-2.83;100.00
56681;BME280;42558;52.388;13.390;2022-12-17T00:31:30;101686.44;;;-2.87;100.00
56681;BME280;42558;52.388;13.390;2022-12-17T00:34:35;101686.64;;;-2.86;100.00
56681;BME280;42558;52.388;13.390;2022-12-17T00:37:25;101683.69;;;-2.97;100.00
56681;BME280;42558;52.388;13.390;2022-12-17T00:40:14;101691.92;;;-2.99;100.00
56681;BME280;42558;52.388;13.390;2022-12-17T00:43:13;101695.23;;;-2.86;100.00
56681;BME280;42558;52.388;13.390;2022-12-17T00:46:00;101696.88;;;-2.85;100.00
56681;BME280;42558;52.388;13.390;2022-12-17T00:48:49;101695.23;;;-2.76;100.00
56681;BME280;42558;52.388;13.390;2022-12-17T00:51:38;101698.70;;;-2.80;100.00
56681;BME280;42558;52.388;13.390;2022-12-17T00:54:27;101702.58;;;-2.77;100.00
56681;BME280;42558;52.388;13.390;2022-12-17T00:57:15;101701.85;;;-2.81;100.00
56681;BME280;42558;52.388;13.390;2022-12-17T01:00:04;101708.08;;;-2.89;100.00
56681;BME280;42558;52.388;13.390;2022-12-17T01:03:03;101709.04;;;-2.81;100.00
56681;BME280;42558;52.388;13.390;2022-12-17T01:05:51;101713.29;;;-2.86;100.00
56681;BME280;42558;52.388;13.390;2022-12-17T01:08:39;101719.77;;;-2.89;100.00
56681;BME280;42558;52.388;13.390;2022-12-17T01:11:28;101724.77;;;-2.85;100.00
56681;BME280;42558;52.388;13.390;2022-12-17T01:14:17;101729.39;;;-2.83;100.00
56681;BME280;42558;52.388;13.390;2022-12-17T01:17:06;101729.86;;;-2.82;100.00
56681;BME280;42558;52.388;13.390;2022-12-17T01:19:54;101733.17;;;-2.79;100.00
56681;BME280;42558;52.388;13.390;2022-12-17T01:22:44;101736.30;;;-2.79;100.00
56681;BME280;42558;52.388;13.390;2022-12-17T01:25:33;101735.38;;;-2.75;100.00
56681;BME280;42558;52.388;13.390;2022-12-17T01:28:26;101740.84;;;-2.80;100.00
56681;BME280;42558;52.388;13.390;2022-12-17T01:31:14;101742.23;;;-2.90;100.00
56681;BME280;42558;52.388;13.390;2022-12-17T01:34:04;101745.25;;;-2.91;100.00
56681;BME280;42558;52.388;13.390;2022-12-17T01:36:52;101741.67;;;-2.93;100.00
56681;BME280;42558;52.388;13.390;2022-12-17T01:39:41;101738.54;;;-2.97;100.00
56681;BME280;42558;52.388;13.390;2022-12-17T01:42:43;101737.64;;;-3.06;100.00
56681;BME280;42558;52.388;13.390;2022-12-17T01:45:43;101742.51;;;-3.06;100.00
56681;BME280;42558;52.388;13.390;2022-12-17T01:48:53;101742.86;;;-3.16;100.00
56681;BME280;42558;52.388;13.390;2022-12-17T01:51:42;101750.64;;;-3.25;100.00
56681;BME280;42558;52.388;13.390;2022-12-17T01:54:31;101751.26;;;-3.32;100.00
56681;BME280;42558;52.388;13.390;2022-12-17T01:57:20;101754.16;;;-3.34;100.00
56681;BME280;42558;52.388;13.390;2022-12-17T02:00:12;101756.42;;;-3.32;100.00
56681;BME280;42558;52.388;13.390;2022-12-17T02:03:02;101755.83;;;-3.29;100.00
56681;BME280;42558;52.388;13.390;2022-12-17T02:06:22;101748.75;;;-3.27;100.00
56681;BME280;42558;52.388;13.390;2022-12-17T02:09:42;101756.80;;;-3.30;100.00
56681;BME280;42558;52.388;13.390;2022-12-17T02:12:47;101760.20;;;-3.28;100.00
56681;BME280;42558;52.388;13.390;2022-12-17T02:16:18;101761.98;;;-3.30;100.00
56681;BME280;42558;52.388;13.390;2022-12-17T02:19:35;101757.10;;;-3.22;100.00
56681;BME280;42558;52.388;13.390;2022-12-17T02:23:18;101752.67;;;-3.20;100.00
56681;BME280;42558;52.388;13.390;2022-12-17T02:29:27;101754.17;;;-3.26;100.00
56681;BME280;42558;52.388;13.390;2022-12-17T02:32:16;101753.05;;;-3.25;100.00
56681;BME280;42558;52.388;13.390;2022-12-17T02:35:14;101758.14;;;-3.28;100.00
56681;BME280;42558;52.388;13.390;2022-12-17T02:38:22;101756.07;;;-3.28;100.00
56681;BME280;42558;52.388;13.390;2022-12-17T02:41:41;101759.35;;;-3.28;100.00
56681;BME280;42558;52.388;13.390;2022-12-17T02:44:34;101765.02;;;-3.28;100.00
56681;BME280;42558;52.388;13.390;2022-12-17T02:47:24;101769.49;;;-3.26;100.00
56681;BME280;42558;52.388;13.390;2022-12-17T02:50:13;101774.25;;;-3.31;100.00
56681;BME280;42558;52.388;13.390;2022-12-17T02:53:02;101777.61;;;-3.32;100.00
56681;BME280;42558;52.388;13.390;2022-12-17T02:55:51;101779.26;;;-3.28;100.00
56681;BME280;42558;52.388;13.390;2022-12-17T02:58:40;101779.01;;;-3.29;100.00
56681;BME280;42558;52.388;13.390;2022-12-17T03:01:29;101783.05;;;-3.31;100.00
56681;BME280;42558;52.388;13.390;2022-12-17T03:12:22;101793.14;;;-3.33;100.00
56681;BME280;42558;52.388;13.390;2022-12-17T03:15:11;101789.29;;;-3.30;100.00
56681;BME280;42558;52.388;13.390;2022-12-17T03:17:59;101794.50;;;-3.33;100.00
56681;BME280;42558;52.388;13.390;2022-12-17T03:20:52;101796.81;;;-3.34;100.00
56681;BME280;42558;52.388;13.390;2022-12-17T03:23:40;101796.56;;;-3.29;100.00
56681;BME280;42558;52.388;13.390;2022-12-17T03:26:30;101797.67;;;-3.26;100.00
56681;BME280;42558;52.388;13.390;2022-12-17T03:29:18;101803.89;;;-3.32;100.00
56681;BME280;42558;52.388;13.390;2022-12-17T03:32:06;101804.40;;;-3.40;100.00
56681;BME280;42558;52.388;13.390;2022-12-17T03:34:55;101808.05;;;-3.49;100.00
56681;BME280;42558;52.388;13.390;2022-12-17T03:37:43;101810.83;;;-3.49;100.00
56681;BME280;42558;52.388;13.390;2022-12-17T03:40:49;101812.98;;;-3.48;100.00
56681;BME280;42558;52.388;13.390;2022-12-17T03:43:38;101816.81;;;-3.51;100.00
56681;BME280;42558;52.388;13.390;2022-12-17T03:46:27;101817.95;;;-3.56;100.00
56681;BME280;42558;52.388;13.390;2022-12-17T03:49:15;101822.39;;;-3.52;100.00
56681;BME280;42558;52.388;13.390;2022-12-17T03:52:04;101829.04;;;-3.53;100.00
56681;BME280;42558;52.388;13.390;2022-12-17T03:54:52;101835.88;;;-3.58;100.00
56681;BME280;42558;52.388;13.390;2022-12-17T03:57:40;101836.19;;;-3.52;100.00
56681;BME280;42558;52.388;13.390;2022-12-17T04:00:29;101837.44;;;-3.59;100.00
56681;BME280;42558;52.388;13.390;2022-12-17T04:03:18;101841.07;;;-3.65;100.00
56681;BME280;42558;52.388;13.390;2022-12-17T04:06:08;101839.50;;;-3.67;100.00
56681;BME280;42558;52.388;13.390;2022-12-17T04:08:56;101838.09;;;-3.68;100.00
56681;BME280;42558;52.388;13.390;2022-12-17T04:11:44;101844.64;;;-3.58;100.00
56681;BME280;42558;52.388;13.390;2022-12-17T04:14:33;101849.20;;;-3.57;100.00
56681;BME280;42558;52.388;13.390;2022-12-17T04:17:21;101852.15;;;-3.57;100.00
56681;BME280;42558;52.388;13.390;2022-12-17T04:20:10;101854.08;;;-3.56;100.00
56681;BME280;42558;52.388;13.390;2022-12-17T04:22:59;101864.27;;;-3.58;100.00
56681;BME280;42558;52.388;13.390;2022-12-17T04:25:47;101868.41;;;-3.57;100.00
56681;BME280;42558;52.388;13.390;2022-12-17T04:28:33;101869.86;;;-3.68;100.00
56681;BME280;42558;52.388;13.390;2022-12-17T04:31:21;101869.27;;;-3.69;100.00
56681;BME280;42558;52.388;13.390;2022-12-17T04:34:10;101872.30;;;-3.66;100.00
56681;BME280;42558;52.388;13.390;2022-12-17T04:36:59;101873.03;;;-3.63;100.00
56681;BME280;42558;52.388;13.390;2022-12-17T04:39:48;101874.15;;;-3.58;100.00
56681;BME280;42558;52.388;13.390;2022-12-17T04:42:36;101873.45;;;-3.62;100.00
56681;BME280;42558;52.388;13.390;2022-12-17T04:45:25;101875.20;;;-3.70;100.00
56681;BME280;42558;52.388;13.390;2022-12-17T04:48:13;101876.09;;;-3.71;100.00
56681;BME280;42558;52.388;13.390;2022-12-17T04:51:02;101882.46;;;-3.66;100.00
56681;BME280;42558;52.388;13.390;2022-12-17T04:53:47;101887.15;;;-3.65;100.00
56681;BME280;42558;52.388;13.390;2022-12-17T04:56:36;101888.28;;;-3.75;100.00
56681;BME280;42558;52.388;13.390;2022-12-17T04:59:21;101887.09;;;-3.77;100.00
56681;BME280;42558;52.388;13.390;2022-12-17T05:02:07;101886.77;;;-3.77;100.00
56681;BME280;42558;52.388;13.390;2022-12-17T05:04:56;101887.09;;;-3.79;100.00
56681;BME280;42558;52.388;13.390;2022-12-17T05:07:44;101887.52;;;-3.74;100.00
56681;BME280;42558;52.388;13.390;2022-12-17T05:10:33;101891.98;;;-3.78;100.00
56681;BME280;42558;52.388;13.390;2022-12-17T05:13:22;101894.06;;;-3.70;100.00
56681;BME280;42558;52.388;13.390;2022-12-17T05:16:11;101896.03;;;-3.67;100.00
56681;BME280;42558;52.388;13.390;2022-12-17T05:18:59;101900.23;;;-3.69;100.00
56681;BME280;42558;52.388;13.390;2022-12-17T05:21:48;101899.96;;;-3.66;100.00
56681;BME280;42558;52.388;13.390;2022-12-17T05:24:36;101905.11;;;-3.62;100.00
56681;BME280;42558;52.388;13.390;2022-12-17T05:27:25;101905.04;;;-3.72;100.00
56681;BME280;42558;52.388;13.390;2022-12-17T05:30:13;101905.61;;;-3.73;100.00
56681;BME280;42558;52.388;13.390;2022-12-17T05:33:03;101907.23;;;-3.73;100.00
56681;BME280;42558;52.388;13.390;2022-12-17T05:35:49;101908.70;;;-3.66;100.00
56681;BME280;42558;52.388;13.390;2022-12-17T05:38:38;101916.89;;;-3.63;100.00
56681;BME280;42558;52.388;13.390;2022-12-17T05:41:26;101913.59;;;-3.69;100.00
56681;BME280;42558;52.388;13.390;2022-12-17T05:44:15;101919.63;;;-3.65;100.00
56681;BME280;42558;52.388;13.390;2022-12-17T05:47:04;101922.63;;;-3.68;100.00
56681;BME280;42558;52.388;13.390;2022-12-17T05:49:53;101927.30;;;-3.69;100.00
56681;BME280;42558;52.388;13.390;2022-12-17T05:52:40;101931.56;;;-3.64;100.00
56681;BME280;42558;52.388;13.390;2022-12-17T05:55:28;101942.56;;;-3.60;100.00
56681;BME280;42558;52.388;13.390;2022-12-17T05:58:16;101949.63;;;-3.56;100.00
56681;BME280;42558;52.388;13.390;2022-12-17T06:01:05;101949.63;;;-3.54;100.00
56681;BME280;42558;52.388;13.390;2022-12-17T06:03:54;101952.45;;;-3.61;100.00
56681;BME280;42558;52.388;13.390;2022-12-17T06:06:42;101948.66;;;-3.69;100.00
56681;BME280;42558;52.388;13.390;2022-12-17T06:09:31;101953.70;;;-3.72;100.00
56681;BME280;42558;52.388;13.390;2022-12-17T06:12:19;101959.02;;;-3.63;100.00
56681;BME280;42558;52.388;13.390;2022-12-17T06:15:08;101958.77;;;-3.59;100.00
56681;BME280;42558;52.388;13.390;2022-12-17T06:17:56;101967.14;;;-3.68;100.00
56681;BME280;42558;52.388;13.390;2022-12-17T06:20:46;101969.64;;;-3.63;100.00
56681;BME280;42558;52.388;13.390;2022-12-17T06:23:34;101975.83;;;-3.69;100.00
56681;BME280;42558;52.388;13.390;2022-12-17T06:26:22;101973.38;;;-3.73;100.00
56681;BME280;42558;52.388;13.390;2022-12-17T06:29:11;101979.69;;;-3.64;100.00
56681;BME280;42558;52.388;13.390;2022-12-17T06:31:59;101976.27;;;-3.64;100.00
56681;BME280;42558;52.388;13.390;2022-12-17T06:34:49;101980.37;;;-3.68;100.00
56681;BME280;42558;52.388;13.390;2022-12-17T06:37:35;101987.09;;;-3.71;100.00
56681;BME280;42558;52.388;13.390;2022-12-17T06:40:24;101986.28;;;-3.69;100.00
56681;BME280;42558;52.388;13.390;2022-12-17T06:43:13;101991.04;;;-3.67;100.00
56681;BME280;42558;52.388;13.390;2022-12-17T06:46:02;101996.66;;;-3.66;100.00
56681;BME280;42558;52.388;13.390;2022-12-17T06:48:51;101999.14;;;-3.65;100.00
56681;BME280;42558;52.388;13.390;2022-12-17T06:51:39;102000.98;;;-3.56;100.00
56681;BME280;42558;52.388;13.390;2022-12-17T06:54:28;102007.66;;;-3.62;100.00
56681;BME280;42558;52.388;13.390;2022-12-17T06:57:17;102011.59;;;-3.74;100.00
56681;BME280;42558;52.388;13.390;2022-12-17T07:00:14;102020.16;;;-3.70;100.00
56681;BME280;42558;52.388;13.390;2022-12-17T07:03:02;102028.33;;;-3.73;100.00
56681;BME280;42558;52.388;13.390;2022-12-17T07:05:51;102035.67;;;-3.72;100.00
56681;BME280;42558;52.388;13.390;2022-12-17T07:08:40;102039.59;;;-3.65;100.00
56681;BME280;42558;52.388;13.390;2022-12-17T07:11:28;102041.02;;;-3.61;100.00
56681;BME280;42558;52.388;13.390;2022-12-17T07:14:15;102051.18;;;-3.69;100.00
56681;BME280;42558;52.388;13.390;2022-12-17T07:17:03;102051.77;;;-3.78;100.00
56681;BME280;42558;52.388;13.390;2022-12-17T07:19:52;102053.65;;;-3.76;100.00
56681;BME280;42558;52.388;13.390;2022-12-17T07:22:40;102061.98;;;-3.81;100.00
56681;BME280;42558;52.388;13.390;2022-12-17T07:25:29;102063.70;;;-3.86;100.00
56681;BME280;42558;52.388;13.390;2022-12-17T07:28:17;102068.66;;;-3.85;100.00
56681;BME280;42558;52.388;13.390;2022-12-17T07:31:06;102072.09;;;-3.83;100.00
56681;BME280;42558;52.388;13.390;2022-12-17T07:33:54;102076.56;;;-3.79;100.00
56681;BME280;42558;52.388;13.390;2022-12-17T07:36:43;102081.31;;;-3.93;100.00
56681;BME280;42558;52.388;13.390;2022-12-17T07:39:31;102084.07;;;-3.80;100.00
56681;BME280;42558;52.388;13.390;2022-12-17T07:42:20;102088.71;;;-3.69;100.00
56681;BME280;42558;52.388;13.390;2022-12-17T07:45:08;102090.15;;;-3.68;100.00
56681;BME280;42558;52.388;13.390;2022-12-17T07:47:57;102089.79;;;-3.75;100.00
56681;BME280;42558;52.388;13.390;2022-12-17T07:50:49;102092.21;;;-3.79;100.00
56681;BME280;42558;52.388;13.390;2022-12-17T07:53:38;102097.66;;;-3.77;100.00
56681;BME280;42558;52.388;13.390;2022-12-17T07:56:26;102102.14;;;-3.79;100.00
56681;BME280;42558;52.388;13.390;2022-12-17T07:59:12;102111.41;;;-3.94;100.00
56681;BME280;42558;52.388;13.390;2022-12-17T08:02:01;102119.56;;;-3.88;100.00
56681;BME280;42558;52.388;13.390;2022-12-17T08:04:50;102121.42;;;-3.95;100.00
56681;BME280;42558;52.388;13.390;2022-12-17T08:07:38;102123.64;;;-3.92;100.00
56681;BME280;42558;52.388;13.390;2022-12-17T08:10:27;102127.50;;;-3.98;100.00
56681;BME280;42558;52.388;13.390;2022-12-17T08:13:15;102131.84;;;-3.92;100.00
56681;BME280;42558;52.388;13.390;2022-12-17T08:16:05;102128.52;;;-3.91;100.00
56681;BME280;42558;52.388;13.390;2022-12-17T08:18:54;102128.50;;;-3.84;100.00
56681;BME280;42558;52.388;13.390;2022-12-17T08:21:42;102131.16;;;-3.83;100.00
56681;BME280;42558;52.388;13.390;2022-12-17T08:24:30;102132.38;;;-3.74;100.00
56681;BME280;42558;52.388;13.390;2022-12-17T08:27:19;102131.39;;;-3.60;100.00
56681;BME280;42558;52.388;13.390;2022-12-17T08:30:08;102128.12;;;-3.45;100.00
56681;BME280;42558;52.388;13.390;2022-12-17T08:33:04;102133.26;;;-3.64;100.00
56681;BME280;42558;52.388;13.390;2022-12-17T08:35:54;102132.70;;;-3.63;100.00
56681;BME280;42558;52.388;13.390;2022-12-17T08:38:44;102138.64;;;-3.56;100.00
56681;BME280;42558;52.388;13.390;2022-12-17T08:41:32;102145.11;;;-3.59;100.00
56681;BME280;42558;52.388;13.390;2022-12-17T08:44:25;102146.84;;;-3.66;100.00
56681;BME280;42558;52.388;13.390;2022-12-17T08:47:13;102145.33;;;-3.68;100.00
56681;BME280;42558;52.388;13.390;2022-12-17T08:50:04;102151.64;;;-3.83;100.00
56681;BME280;42558;52.388;13.390;2022-12-17T08:53:01;102152.40;;;-3.80;100.00
56681;BME280;42558;52.388;13.390;2022-12-17T08:55:49;102150.56;;;-3.80;100.00
56681;BME280;42558;52.388;13.390;2022-12-17T08:58:38;102155.16;;;-3.75;100.00
56681;BME280;42558;52.388;13.390;2022-12-17T09:01:27;102161.58;;;-3.68;100.00
56681;BME280;42558;52.388;13.390;2022-12-17T09:04:16;102165.03;;;-3.72;100.00
56681;BME280;42558;52.388;13.390;2022-12-17T09:07:05;102172.73;;;-3.67;100.00
56681;BME280;42558;52.388;13.390;2022-12-17T09:09:53;102172.19;;;-3.67;100.00
56681;BME280;42558;52.388;13.390;2022-12-17T09:12:42;102170.62;;;-3.67;100.00
56681;BME280;42558;52.388;13.390;2022-12-17T09:15:33;102172.20;;;-3.76;100.00
56681;BME280;42558;52.388;13.390;2022-12-17T09:18:21;102174.25;;;-3.78;100.00
56681;BME280;42558;52.388;13.390;2022-12-17T09:21:10;102180.23;;;-3.76;100.00
56681;BME280;42558;52.388;13.390;2022-12-17T09:23:58;102179.09;;;-3.80;100.00
56681;BME280;42558;52.388;13.390;2022-12-17T09:26:47;102178.66;;;-3.80;100.00
56681;BME280;42558;52.388;13.390;2022-12-17T09:29:35;102179.84;;;-3.70;100.00
56681;BME280;42558;52.388;13.390;2022-12-17T09:32:23;102176.97;;;-3.76;100.00
56681;BME280;42558;52.388;13.390;2022-12-17T09:35:12;102179.72;;;-3.69;100.00
56681;BME280;42558;52.388;13.390;2022-12-17T09:38:00;102185.83;;;-3.63;100.00
56681;BME280;42558;52.388;13.390;2022-12-17T09:40:50;102185.21;;;-3.64;100.00
56681;BME280;42558;52.388;13.390;2022-12-17T09:44:19;102183.92;;;-3.63;100.00
56681;BME280;42558;52.388;13.390;2022-12-17T09:50:20;102186.10;;;-3.62;100.00
56681;BME280;42558;52.388;13.390;2022-12-17T09:56:12;102187.52;;;-3.55;100.00
56681;BME280;42558;52.388;13.390;2022-12-17T09:59:02;102195.31;;;-3.59;100.00
56681;BME280;42558;52.388;13.390;2022-12-17T10:01:51;102197.35;;;-3.59;100.00
56681;BME280;42558;52.388;13.390;2022-12-17T10:04:43;102197.81;;;-3.58;100.00
56681;BME280;42558;52.388;13.390;2022-12-17T10:07:35;102201.33;;;-3.38;100.00
56681;BME280;42558;52.388;13.390;2022-12-17T10:10:31;102203.71;;;-3.40;100.00
56681;BME280;42558;52.388;13.390;2022-12-17T10:13:22;102202.13;;;-3.48;100.00
56681;BME280;42558;52.388;13.390;2022-12-17T10:16:32;102204.74;;;-3.44;100.00
56681;BME280;42558;52.388;13.390;2022-12-17T10:19:38;102211.28;;;-3.48;100.00
56681;BME280;42558;52.388;13.390;2022-12-17T10:22:29;102211.84;;;-3.53;100.00
56681;BME280;42558;52.388;13.390;2022-12-17T10:25:21;102209.20;;;-3.49;100.00
56681;BME280;42558;52.388;13.390;2022-12-17T10:28:20;102213.60;;;-3.50;100.00
56681;BME280;42558;52.388;13.390;2022-12-17T10:31:15;102221.42;;;-3.48;100.00
56681;BME280;42558;52.388;13.390;2022-12-17T10:34:14;102231.77;;;-3.56;100.00
56681;BME280;42558;52.388;13.390;2022-12-17T10:37:01;102225.65;;;-3.72;100.00
56681;BME280;42558;52.388;13.390;2022-12-17T10:39:57;102228.28;;;-3.61;100.00
56681;BME280;42558;52.388;13.390;2022-12-17T10:42:47;102228.04;;;-3.60;100.00
56681;BME280;42558;52.388;13.390;2022-12-17T10:45:35;102229.11;;;-3.49;100.00
56681;BME280;42558;52.388;13.390;2022-12-17T10:48:27;102232.98;;;-3.55;100.00
56681;BME280;42558;52.388;13.390;2022-12-17T10:51:36;102234.45;;;-3.41;100.00
56681;BME280;42558;52.388;13.390;2022-12-17T10:54:31;102237.73;;;-3.37;100.00
56681;BME280;42558;52.388;13.390;2022-12-17T10:57:35;102241.92;;;-3.36;100.00
56681;BME280;42558;52.388;13.390;2022-12-17T11:00:32;102245.29;;;-3.42;100.00
56681;BME280;42558;52.388;13.390;2022-12-17T11:03:37;102246.84;;;-3.51;100.00
56681;BME280;42558;52.388;13.390;2022-12-17T11:06:40;102247.05;;;-3.60;100.00
56681;BME280;42558;52.388;13.390;2022-12-17T11:09:42;102247.14;;;-3.65;100.00
56681;BME280;42558;52.388;13.390;2022-12-17T11:12:54;102248.24;;;-3.51;100.00
56681;BME280;42558;52.388;13.390;2022-12-17T11:15:51;102251.06;;;-3.45;100.00
56681;BME280;42558;52.388;13.390;2022-12-17T11:18:58;102248.16;;;-3.43;100.00
56681;BME280;42558;52.388;13.390;2022-12-17T11:22:00;102246.97;;;-3.65;100.00
56681;BME280;42558;52.388;13.390;2022-12-17T11:25:12;102246.30;;;-3.61;100.00
56681;BME280;42558;52.388;13.390;2022-12-17T11:28:15;102249.41;;;-3.46;100.00
56681;BME280;42558;52.388;13.390;2022-12-17T11:34:28;102259.06;;;-3.46;100.00
56681;BME280;42558;52.388;13.390;2022-12-17T11:37:33;102260.98;;;-3.40;100.00
56681;BME280;42558;52.388;13.390;2022-12-17T11:40:41;102262.49;;;-3.66;100.00
56681;BME280;42558;52.388;13.390;2022-12-17T11:47:19;102268.90;;;-3.40;100.00
56681;BME280;42558;52.388;13.390;2022-12-17T11:50:31;102278.86;;;-3.29;100.00
56681;BME280;42558;52.388;13.390;2022-12-17T11:53:46;102276.73;;;-3.44;100.00
56681;BME280;42558;52.388;13.390;2022-12-17T11:56:44;102278.25;;;-3.46;100.00
56681;BME280;42558;52.388;13.390;2022-12-17T11:59:45;102287.14;;;-3.52;100.00
56681;BME280;42558;52.388;13.390;2022-12-17T12:05:46;102284.21;;;-3.54;100.00
56681;BME280;42558;52.388;13.390;2022-12-17T12:12:16;102281.09;;;-3.49;100.00
56681;BME280;42558;52.388;13.390;2022-12-17T12:18:49;102278.53;;;-3.59;100.00
56681;BME280;42558;52.388;13.390;2022-12-17T12:25:18;102279.55;;;-3.47;100.00
56681;BME280;42558;52.388;13.390;2022-12-17T12:31:36;102289.55;;;-3.54;100.00
56681;BME280;42558;52.388;13.390;2022-12-17T12:34:31;102295.64;;;-3.53;100.00
56681;BME280;42558;52.388;13.390;2022-12-17T12:37:21;102300.20;;;-3.55;100.00
56681;BME280;42558;52.388;13.390;2022-12-17T12:43:29;102311.23;;;-3.60;100.00
56681;BME280;42558;52.388;13.390;2022-12-17T12:46:57;102317.83;;;-3.65;100.00
56681;BME280;42558;52.388;13.390;2022-12-17T12:50:04;102314.87;;;-3.67;100.00
56681;BME280;42558;52.388;13.390;2022-12-17T12:52:58;102319.34;;;-3.70;100.00
56681;BME280;42558;52.388;13.390;2022-12-17T12:55:44;102325.72;;;-3.66;100.00
56681;BME280;42558;52.388;13.390;2022-12-17T12:58:33;102324.45;;;-3.65;100.00
56681;BME280;42558;52.388;13.390;2022-12-17T13:01:32;102324.59;;;-3.66;100.00
56681;BME280;42558;52.388;13.390;2022-12-17T13:04:33;102328.39;;;-3.73;100.00
56681;BME280;42558;52.388;13.390;2022-12-17T13:07:27;102331.44;;;-3.78;100.00
56681;BME280;42558;52.388;13.390;2022-12-17T13:09:58;102333.21;;;-3.74;100.00
56681;BME280;42558;52.388;13.390;2022-12-17T13:12:43;102338.24;;;-3.72;100.00
56681;BME280;42558;52.388;13.390;2022-12-17T13:15:23;102335.26;;;-3.71;100.00
56681;BME280;42558;52.388;13.390;2022-12-17T13:18:24;102333.46;;;-3.66;100.00
56681;BME280;42558;52.388;13.390;2022-12-17T13:21:23;102331.77;;;-3.70;100.00
56681;BME280;42558;52.388;13.390;2022-12-17T13:23:54;102335.11;;;-3.74;100.00
56681;BME280;42558;52.388;13.390;2022-12-17T13:29:22;102336.52;;;-3.72;100.00
56681;BME280;42558;52.388;13.390;2022-12-17T13:34:51;102345.03;;;-3.99;100.00
56681;BME280;42558;52.388;13.390;2022-12-17T13:37:54;102343.33;;;-3.97;100.00
56681;BME280;42558;52.388;13.390;2022-12-17T13:41:00;102351.86;;;-3.87;100.00
56681;BME280;42558;52.388;13.390;2022-12-17T13:43:47;102351.44;;;-3.88;100.00
56681;BME280;42558;52.388;13.390;2022-12-17T13:46:28;102353.45;;;-3.85;100.00
56681;BME280;42558;52.388;13.390;2022-12-17T13:49:05;102353.91;;;-3.87;100.00
56681;BME280;42558;52.388;13.390;2022-12-17T13:51:45;102361.63;;;-3.89;100.00
56681;BME280;42558;52.388;13.390;2022-12-17T13:54:18;102373.34;;;-4.01;100.00
56681;BME280;42558;52.388;13.390;2022-12-17T13:56:48;102373.46;;;-4.02;100.00
56681;BME280;42558;52.388;13.390;2022-12-17T13:59:21;102378.94;;;-4.02;100.00
56681;BME280;42558;52.388;13.390;2022-12-17T14:01:53;102381.72;;;-4.00;100.00
56681;BME280;42558;52.388;13.390;2022-12-17T14:04:27;102385.26;;;-4.06;100.00
56681;BME280;42558;52.388;13.390;2022-12-17T14:06:59;102388.59;;;-4.02;100.00
56681;BME280;42558;52.388;13.390;2022-12-17T14:09:41;102390.67;;;-3.96;100.00
56681;BME280;42558;52.388;13.390;2022-12-17T14:12:15;102393.05;;;-3.98;100.00
56681;BME280;42558;52.388;13.390;2022-12-17T14:14:58;102400.13;;;-3.98;100.00
56681;BME280;42558;52.388;13.390;2022-12-17T14:17:28;102401.45;;;-4.05;100.00
56681;BME280;42558;52.388;13.390;2022-12-17T14:20:04;102404.63;;;-4.10;100.00
56681;BME280;42558;52.388;13.390;2022-12-17T14:22:42;102408.58;;;-4.12;100.00
56681;BME280;42558;52.388;13.390;2022-12-17T14:25:32;102409.20;;;-4.33;100.00
56681;BME280;42558;52.388;13.390;2022-12-17T14:34:07;102408.98;;;-4.32;100.00
56681;BME280;42558;52.388;13.390;2022-12-17T14:36:42;102409.67;;;-4.27;100.00
56681;BME280;42558;52.388;13.390;2022-12-17T14:39:27;102409.81;;;-4.42;100.00
56681;BME280;42558;52.388;13.390;2022-12-17T14:42:12;102407.61;;;-4.46;100.00
56681;BME280;42558;52.388;13.390;2022-12-17T14:45:04;102410.39;;;-4.26;100.00
56681;BME280;42558;52.388;13.390;2022-12-17T14:47:36;102415.20;;;-4.35;100.00
56681;BME280;42558;52.388;13.390;2022-12-17T14:52:54;102421.38;;;-4.45;100.00
56681;BME280;42558;52.388;13.390;2022-12-17T14:55:55;102430.52;;;-4.43;100.00
56681;BME280;42558;52.388;13.390;2022-12-17T14:58:26;102435.33;;;-4.40;100.00
56681;BME280;42558;52.388;13.390;2022-12-17T15:01:12;102443.20;;;-4.50;100.00
56681;BME280;42558;52.388;13.390;2022-12-17T15:03:44;102440.66;;;-4.61;100.00
56681;BME280;42558;52.388;13.390;2022-12-17T15:06:19;102438.21;;;-4.57;100.00
56681;BME280;42558;52.388;13.390;2022-12-17T15:08:50;102440.86;;;-4.49;100.00
56681;BME280;42558;52.388;13.390;2022-12-17T15:11:21;102446.40;;;-4.49;100.00
56681;BME280;42558;52.388;13.390;2022-12-17T15:13:49;102446.20;;;-4.66;100.00
56681;BME280;42558;52.388;13.390;2022-12-17T15:16:25;102447.05;;;-4.58;100.00
56681;BME280;42558;52.388;13.390;2022-12-17T15:18:55;102446.02;;;-4.56;100.00
56681;BME280;42558;52.388;13.390;2022-12-17T15:21:26;102448.80;;;-4.57;100.00
56681;BME280;42558;52.388;13.390;2022-12-17T15:23:54;102448.77;;;-4.49;100.00
56681;BME280;42558;52.388;13.390;2022-12-17T15:26:22;102452.81;;;-4.47;100.00